Have a Safe July 4th! 

Flight Track Log - Related Links

Times and Time Zones

All times are in EDT time to prevent confusion due to time zone crossing. See the DAL3784 flight status page for this flight to view local times or setup timezone preferences in your user account.

Time Position Orientation Groundspeed Altitude Reporting Facility
EDT Latitude Longitude Course Direction KTS MPH feet Rate Location/Type
Mon 05:26:11 PM 44.2094 -88.3706 98° East 270 311 6,300  Level Chicago Center
Mon 05:27:13 PM 44.1961 -88.2511 99° East 302 348 9,100 2,565 Climbing Chicago Center
Mon 05:28:15 PM 44.1806 -88.1208 99° East 336 387 11,600 2,274 Climbing Chicago Center
Mon 05:29:17 PM 44.1669 -87.9900 98° East 339 390 13,800 2,129 Climbing Chicago Center
Mon 05:30:00 PM 44.1269 -87.7077 109° East  Level FlightAware Approximate
Mon 05:30:19 PM 44.1511 -87.8511 99° East 355 409 16,000  Level Chicago Center
Mon 05:31:21 PM 44.1353 -87.7097 99° East 363 418 17,700 1,810 Climbing Chicago Center
Mon 05:32:25 PM 44.0792 -87.5642 118° Southeast 361 415 19,800 1,776 Climbing Minneapolis Center
Mon 05:33:26 PM 44.0281 -87.4433 120° Southeast 359 413 21,400 1,366 Climbing Minneapolis Center
Mon 05:34:28 PM 43.9747 -87.3206 121° Southeast 365 420 22,600 1,113 Climbing Minneapolis Center
Mon 05:35:30 PM 43.9217 -87.2000 121° Southeast 376 433 23,700 1,065 Climbing Minneapolis Center
Mon 05:36:32 PM 43.8650 -87.0686 121° Southeast 391 450 24,800 634 Climbing Minneapolis Center
Mon 05:37:33 PM 43.7925 -86.9050 122° Southeast 408 470 25,000 98 Climbing Minneapolis Center
Mon 05:38:35 PM 43.7283 -86.7581 121° Southeast 437 503 25,000  Level Minneapolis Center
Mon 05:39:37 PM 43.6692 -86.5947 117° Southeast 474 545 25,000  Level Minneapolis Center
Mon 05:40:38 PM 43.6189 -86.4231 112° Southeast 481 554 25,000  Level Minneapolis Center
Mon 05:41:42 PM 43.5661 -86.2517 113° Southeast 485 558 25,000 -143 Level Chicago Center
Mon 05:42:44 PM 43.5136 -86.0758 112° Southeast 492 566 24,700 -387 Descending Chicago Center
Mon 05:43:46 PM 43.4594 -85.8983 113° Southeast 498 573 24,200 -496 Descending Chicago Center
Mon 05:44:45 PM 43.4067 -85.7261 113° Southeast 488 562 23,700 -532 Descending Minneapolis Center
Mon 05:45:50 PM 43.3417 -85.5208 113° Southeast 487 560 23,100 -331 Descending Chicago Center
Mon 05:46:52 PM 43.2875 -85.3472 113° Southeast 491 565 23,000 -55 Descending Chicago Center
Mon 05:47:39 PM 43.2453 -85.2008 112° Southeast 474 545 23,000  Level Cleveland Center
Mon 05:48:39 PM 43.2086 -85.0186 105° East 484 557 23,000  Level Cleveland Center
Mon 05:49:39 PM 43.1758 -84.8397 104° East 489 563 23,000  Level Cleveland Center
Mon 05:50:39 PM 43.1447 -84.6611 103° East 484 557 23,000 -450 Level Cleveland Center
Mon 05:51:39 PM 43.1092 -84.4853 105° East 479 551 22,100 -1,590 Descending Cleveland Center
Mon 05:52:02 PM 43.0975 -84.4181 103° East 484 557 20,800 -3,000 Descending Chicago Center
Mon 05:52:39 PM 43.0767 -84.3297 108° East 479 551 19,100 -3,031 Descending Cleveland Center
Mon 05:53:39 PM 43.0464 -84.1686 104° East 458 527 15,900 -3,150 Descending Cleveland Center
Mon 05:54:39 PM 43.0158 -84.0050 104° East 437 503 12,800 -2,714 Descending Cleveland Center
Mon 05:55:03 PM 43.0050 -83.9475 104° East 368 423 12,100 -900 Descending Cleveland Center
Mon 05:55:39 PM 42.9906 -83.8758 105° East 388 447 11,900 -63 Descending Cleveland Center
Mon 05:56:39 PM 42.9447 -83.7969 128° Southeast 301 346 12,000 80 Climbing Cleveland Center
Mon 05:56:54 PM 42.9222 -83.7872 162° South 274 315 12,000  Level Cleveland Center
Mon 05:57:55 PM 42.8544 -83.7439 155° Southeast 274 315 12,000 -229 Level Cleveland Center
Mon 05:58:39 PM 42.8031 -83.7158 158° South 273 314 11,600 -885 Descending Cleveland Center
Mon 05:58:56 PM 42.7825 -83.7064 161° South 269 310 11,100 -1,300 Descending Cleveland Center
Mon 05:59:39 PM 42.7358 -83.6672 148° Southeast 273 314 10,300 -1,279 Descending Cleveland Center
Mon 05:59:57 PM 42.7194 -83.6467 137° Southeast 279 321 9,800 -1,200 Descending Cleveland Center
Mon 06:00:39 PM 42.6769 -83.6022 142° Southeast 265 305 9,100 -1,161 Descending Cleveland Center
Mon 06:00:59 PM 42.6567 -83.5786 139° Southeast 274 315 8,600 -1,200 Descending Cleveland Center
Mon 06:01:39 PM 42.6183 -83.5317 138° Southeast 280 322 7,900 -1,180 Descending Cleveland Center
Mon 06:02:00 PM 42.6003 -83.5000 128° Southeast 306 352 7,400 -1,400 Descending Cleveland Center
Mon 06:02:39 PM 42.5664 -83.4447 130° Southeast 286 329 6,500 -1,164 Descending Cleveland Center
Mon 06:03:07 PM 42.5464 -83.4072 126° Southeast 261 300 6,100 -500 Descending Cleveland Center
Mon 06:03:39 PM 42.5225 -83.3667 129° Southeast 279 321 6,000 -107 Descending Cleveland Center
Mon 06:04:03 PM 42.5106 -83.3408 122° Southeast 210 242 6,000 -600 Level Cleveland Center
Mon 06:04:39 PM 42.4864 -83.3003 129° Southeast 247 284 5,400 -1,082 Descending Cleveland Center
Mon 06:05:04 PM 42.4636 -83.2936 168° South 203 234 4,900 -977 Descending Cleveland Center
Mon 06:06:05 PM 42.4097 -83.2831 172° South 192 221 4,000 -836 Descending Cleveland Center
Mon 06:07:06 PM 42.3578 -83.2750 173° South 181 208 3,200 -639 Descending Cleveland Center
Mon 06:08:07 PM 42.3156 -83.3014 205° Southwest 165 190 2,700 -634 Descending Cleveland Center
Mon 06:09:09 PM 42.2792 -83.3336 213° Southwest 128 147 1,900 -756 Descending Cleveland Center
Mon 06:10:22 PM 42.2369 -83.3597 205° Southwest 131 151 1,000 -740 Descending Cleveland Center

Login

Don't have an account? Register now (free) for customized features, flight alerts, and more!